createdAt,value
2023-01-11T00:00:11.723Z,1.02
2023-01-11T00:05:13.160Z,2.55
2023-01-11T00:10:15.073Z,1.42
2023-01-11T00:15:16.721Z,3.05
2023-01-11T00:20:18.844Z,1.23
2023-01-11T00:25:23.184Z,0.45
2023-01-11T00:30:25.751Z,5.25
2023-01-11T00:35:27.932Z,1.83
2023-01-11T00:40:29.364Z,2.08
2023-01-11T00:45:30.860Z,1.38
2023-01-11T00:50:35.592Z,1.30
2023-01-11T00:55:37.151Z,1.45
2023-01-11T01:00:38.805Z,0.38
2023-01-11T01:05:40.451Z,1.92
2023-01-11T01:10:43.254Z,1.73
2023-01-11T01:15:47.716Z,2.10
2023-01-11T01:20:50.893Z,1.15
2023-01-11T01:25:52.470Z,1.52
2023-01-11T01:30:53.985Z,1.25
2023-01-11T01:35:55.513Z,1.25
2023-01-11T01:40:57.929Z,1.73
2023-01-11T01:45:59.424Z,2.30
2023-01-11T01:51:00.993Z,1.40
2023-01-11T01:56:08.704Z,2.28
2023-01-11T02:01:10.453Z,0.82
2023-01-11T02:06:12.137Z,0.75
2023-01-11T02:11:16.221Z,0.85
2023-01-11T02:16:17.794Z,1.08
2023-01-11T02:21:27.282Z,1.08
2023-01-11T02:26:49.798Z,2.33
2023-01-11T02:32:18.392Z,0.63
2023-01-11T02:37:41.436Z,1.15
2023-01-11T02:43:13.076Z,1.23
2023-01-11T02:48:33.975Z,0.80
2023-01-11T02:53:44.985Z,0.60
2023-01-11T02:58:49.541Z,0.55
2023-01-11T03:03:52.500Z,1.45
2023-01-11T03:09:19.173Z,0.90
2023-01-11T03:14:54.932Z,0.93
2023-01-11T03:20:13.310Z,1.75
2023-01-11T03:25:56.893Z,1.52
2023-01-11T03:31:11.251Z,0.47
2023-01-11T03:36:40.440Z,1.33
2023-01-11T03:41:46.345Z,1.50
2023-01-11T03:46:53.108Z,1.23
2023-01-11T03:52:00.717Z,1.98
2023-01-11T03:57:09.084Z,1.77
2023-01-11T04:02:35.073Z,1.63
2023-01-11T04:07:48.666Z,1.13
2023-01-11T04:12:50.280Z,3.65
2023-01-11T04:18:01.332Z,3.28
2023-01-11T04:23:04.404Z,1.85
2023-01-11T04:28:09.105Z,1.38
2023-01-11T04:33:17.112Z,2.03
2023-01-11T04:38:47.778Z,1.27
2023-01-11T04:49:15.493Z,3.60
2023-01-11T04:54:19.846Z,4.30
2023-01-11T04:59:30.267Z,3.60
2023-01-11T05:04:41.051Z,2.30
2023-01-11T05:09:47.508Z,4.50
2023-01-11T05:14:53.857Z,2.90
2023-01-11T05:19:55.377Z,1.95
2023-01-11T05:24:56.900Z,2.35
2023-01-11T05:29:58.469Z,2.20
2023-01-11T05:35:00.215Z,3.28
2023-01-11T05:40:01.774Z,2.67
2023-01-11T05:45:03.708Z,2.40
2023-01-11T05:50:13.212Z,2.20
2023-01-11T05:55:15.113Z,2.53
2023-01-11T06:00:19.266Z,2.70
2023-01-11T06:05:20.832Z,3.83
2023-01-11T06:10:22.745Z,4.07
2023-01-11T06:15:24.263Z,4.65
2023-01-11T06:20:25.730Z,2.42
2023-01-11T06:25:27.992Z,2.88
2023-01-11T06:30:33.035Z,7.40
2023-01-11T06:35:39.717Z,2.97
2023-01-11T06:40:42.388Z,2.50
2023-01-11T06:45:43.926Z,2.72
2023-01-11T06:50:52.911Z,2.55
2023-01-11T06:55:56.102Z,4.47
2023-01-11T07:00:58.549Z,4.63
2023-01-11T07:06:01.760Z,4.25
2023-01-11T07:11:03.217Z,4.75
2023-01-11T07:16:04.979Z,5.45
2023-01-11T07:21:06.573Z,2.85
2023-01-11T07:26:08.001Z,4.68
2023-01-11T07:31:10.728Z,5.80
2023-01-11T07:36:12.387Z,5.28
2023-01-11T07:41:13.759Z,4.13
2023-01-11T07:46:15.276Z,5.35
2023-01-11T07:51:16.896Z,4.15
2023-01-11T07:56:18.259Z,3.95
2023-01-11T08:01:20.525Z,3.75
2023-01-11T08:06:21.984Z,4.28
2023-01-11T08:11:23.817Z,3.45
2023-01-11T08:16:26.152Z,2.15
2023-01-11T08:21:28.309Z,3.47
2023-01-11T08:26:29.749Z,3.50
2023-01-11T08:31:31.121Z,4.22
2023-01-11T08:36:32.624Z,4.32
2023-01-11T08:41:34.270Z,1.60
2023-01-11T08:46:35.716Z,2.38
2023-01-11T08:51:39.869Z,3.67
2023-01-11T08:56:41.293Z,4.43
2023-01-11T09:01:42.812Z,2.70
2023-01-11T09:06:44.252Z,6.32
2023-01-11T09:11:45.770Z,4.78
2023-01-11T09:16:47.312Z,5.15
2023-01-11T09:21:49.115Z,4.72
2023-01-11T09:26:50.633Z,5.10
2023-01-11T09:31:52.114Z,5.88
2023-01-11T09:36:53.854Z,6.63
2023-01-11T09:42:26.511Z,6.88
2023-01-11T09:47:40.647Z,4.45
2023-01-11T09:52:47.450Z,6.20
2023-01-11T09:58:03.196Z,8.25
2023-01-11T10:03:25.397Z,6.68
2023-01-11T10:18:27.370Z,8.57
2023-01-11T10:19:58.049Z,12.43
2023-01-11T10:25:14.326Z,13.50
2023-01-11T10:30:19.299Z,11.95
2023-01-11T10:35:29.422Z,24.20
2023-01-11T10:45:54.228Z,11.88
2023-01-11T10:51:18.708Z,9.93
2023-01-11T10:57:17.301Z,15.82
2023-01-11T11:02:48.017Z,17.90
2023-01-11T11:07:57.315Z,12.00
2023-01-11T11:12:58.677Z,15.03
2023-01-11T11:18:00.034Z,12.77
2023-01-11T11:23:02.409Z,14.48
2023-01-11T11:28:23.573Z,13.50
2023-01-11T11:33:34.395Z,9.93
2023-01-11T11:38:59.582Z,13.25
2023-01-11T11:44:17.327Z,12.13
2023-01-11T11:49:19.030Z,7.50
2023-01-11T11:54:25.326Z,8.93
2023-01-11T11:59:30.171Z,13.18
2023-01-11T12:04:37.211Z,15.02
2023-01-11T12:09:44.717Z,16.15
2023-01-11T12:15:06.264Z,15.15
2023-01-11T12:20:22.973Z,9.05
2023-01-11T12:25:26.796Z,12.00
2023-01-11T12:30:57.993Z,11.90
2023-01-11T12:36:13.283Z,14.02
2023-01-11T12:41:26.430Z,27.65
2023-01-11T12:46:51.546Z,16.10
2023-01-11T12:52:18.155Z,8.93
2023-01-11T12:57:46.429Z,12.10
2023-01-11T13:03:00.076Z,15.05
2023-01-11T13:08:24.482Z,11.68
2023-01-11T13:14:02.751Z,12.25
2023-01-11T13:19:10.498Z,12.02
2023-01-11T13:24:20.216Z,14.25
2023-01-11T13:29:28.101Z,8.05
2023-01-11T13:34:34.893Z,13.63
2023-01-11T13:39:50.499Z,9.70
2023-01-11T13:45:17.301Z,15.98
2023-01-11T13:50:37.269Z,17.40
2023-01-11T13:55:48.006Z,10.23
2023-01-11T14:01:00.256Z,11.77
2023-01-11T14:06:27.452Z,10.68
2023-01-11T14:11:52.335Z,13.23
2023-01-11T14:17:33.819Z,12.90
2023-01-11T14:23:13.413Z,15.20
2023-01-11T14:28:24.356Z,11.60
2023-01-11T14:33:44.459Z,13.45
2023-01-11T14:38:51.867Z,13.43
2023-01-11T14:44:05.419Z,14.68
2023-01-11T14:49:24.948Z,13.18
2023-01-11T14:54:32.641Z,14.35
2023-01-11T14:59:39.561Z,12.38
2023-01-11T15:04:53.091Z,10.48
2023-01-11T15:09:56.373Z,14.00
2023-01-11T15:15:17.031Z,9.15
2023-01-11T15:20:21.285Z,14.25
2023-01-11T15:25:25.277Z,12.50
2023-01-11T15:30:32.755Z,19.02
2023-01-11T15:35:34.576Z,11.73
2023-01-11T15:40:41.533Z,19.08
2023-01-11T15:46:04.678Z,14.45
2023-01-11T15:51:10.118Z,13.70
2023-01-11T15:56:18.030Z,12.57
2023-01-11T16:01:26.726Z,13.15
2023-01-11T16:06:37.007Z,13.27
2023-01-11T16:12:11.155Z,20.67
2023-01-11T16:17:15.142Z,15.43
2023-01-11T16:22:17.926Z,16.33
2023-01-11T16:27:34.582Z,11.63
2023-01-11T16:32:36.131Z,10.05
2023-01-11T16:37:46.624Z,15.07
2023-01-11T16:42:51.159Z,12.95
2023-01-11T16:48:03.555Z,14.13
2023-01-11T16:53:12.720Z,11.23
2023-01-11T16:58:29.101Z,17.10
2023-01-11T17:03:36.294Z,8.85
2023-01-11T17:08:42.885Z,10.90
2023-01-11T17:13:53.440Z,8.95
2023-01-11T17:18:55.195Z,12.18
2023-01-11T17:24:03.731Z,14.88
2023-01-11T17:29:05.975Z,13.10
2023-01-11T17:34:23.668Z,13.27
2023-01-11T17:39:32.052Z,12.90
2023-01-11T17:44:33.865Z,8.60
2023-01-11T17:49:37.655Z,7.47
2023-01-11T17:54:39.462Z,10.38
2023-01-11T17:59:41.005Z,8.68
2023-01-11T18:04:42.725Z,7.63
2023-01-11T18:09:47.697Z,5.35
2023-01-11T18:15:00.768Z,10.05
2023-01-11T18:20:16.268Z,9.00
2023-01-11T18:25:29.635Z,8.88
2023-01-11T18:30:31.113Z,11.18
2023-01-11T18:35:42.111Z,11.77
2023-01-11T18:40:45.076Z,8.07
2023-01-11T18:45:46.647Z,10.10
2023-01-11T18:50:49.779Z,8.18
2023-01-11T18:55:51.313Z,6.50
2023-01-11T19:00:52.786Z,7.97
2023-01-11T19:05:54.272Z,9.38
2023-01-11T19:10:56.018Z,6.93
2023-01-11T19:16:00.434Z,17.30
2023-01-11T19:21:03.627Z,8.65
2023-01-11T19:26:05.168Z,12.23
2023-01-11T19:31:09.515Z,14.82
2023-01-11T19:36:11.343Z,15.52
2023-01-11T19:41:15.390Z,7.68
2023-01-11T19:46:30.090Z,10.80
2023-01-11T19:51:32.781Z,13.30
2023-01-11T19:56:34.440Z,11.77
2023-01-11T20:01:35.967Z,12.65
2023-01-11T20:06:42.690Z,10.02
2023-01-11T20:11:44.967Z,13.98
2023-01-11T20:16:46.575Z,10.25
2023-01-11T20:21:55.650Z,14.45
2023-01-11T20:26:59.503Z,10.80
2023-01-11T20:32:27.753Z,14.02
2023-01-11T20:37:25.343Z,12.77
2023-01-11T20:42:26.708Z,13.68
2023-01-11T20:47:30.087Z,12.20
2023-01-11T20:52:31.578Z,11.52
2023-01-11T20:57:32.985Z,14.65
2023-01-11T21:02:34.381Z,10.57
2023-01-11T21:07:36.048Z,12.48
2023-01-11T21:17:37.855Z,9.67
2023-01-11T21:22:39.344Z,14.20
2023-01-11T21:27:40.851Z,10.63
2023-01-11T21:32:42.341Z,10.57
2023-01-11T21:37:43.764Z,6.80
2023-01-11T21:42:45.316Z,12.18
2023-01-11T21:47:47.329Z,12.55
2023-01-11T21:52:50.315Z,8.45
2023-01-11T21:57:51.803Z,8.82
2023-01-11T22:02:53.277Z,7.90
2023-01-11T22:07:56.573Z,8.07
2023-01-11T22:12:58.277Z,13.07
2023-01-11T22:17:59.893Z,8.70
2023-01-11T22:23:01.385Z,12.02
2023-01-11T22:28:02.774Z,9.85
2023-01-11T22:33:04.253Z,10.75
2023-01-11T22:38:05.644Z,11.10
2023-01-11T22:43:07.141Z,10.20
2023-01-11T22:48:08.461Z,6.40
2023-01-11T22:53:09.816Z,6.32
2023-01-11T22:58:14.036Z,13.10
2023-01-11T23:03:18.607Z,10.48
2023-01-11T23:08:20.048Z,6.10
2023-01-11T23:13:21.818Z,10.48
2023-01-11T23:18:23.285Z,8.55
2023-01-11T23:23:27.706Z,9.02
2023-01-11T23:28:29.084Z,9.23
2023-01-11T23:33:30.453Z,8.77
2023-01-11T23:38:32.138Z,6.97
2023-01-11T23:43:37.072Z,7.32
2023-01-11T23:48:38.491Z,10.35
2023-01-11T23:53:40.107Z,9.65
2023-01-11T23:58:41.568Z,10.35
